sensor_id;sensor_type;location;lat;lon;timestamp;temperature;humidity
22185;DHT22;11258;52.516;13.318;2023-04-15T00:00:05;9.10;99.90
22185;DHT22;11258;52.516;13.318;2023-04-15T00:02:31;9.10;99.90
22185;DHT22;11258;52.516;13.318;2023-04-15T00:04:57;9.10;99.90
22185;DHT22;11258;52.516;13.318;2023-04-15T00:07:22;9.10;99.90
22185;DHT22;11258;52.516;13.318;2023-04-15T00:09:48;9.10;99.90
22185;DHT22;11258;52.516;13.318;2023-04-15T00:12:13;9.10;99.90
22185;DHT22;11258;52.516;13.318;2023-04-15T00:14:39;9.00;99.90
22185;DHT22;11258;52.516;13.318;2023-04-15T00:17:05;9.00;99.90
22185;DHT22;11258;52.516;13.318;2023-04-15T00:19:30;9.00;99.90
22185;DHT22;11258;52.516;13.318;2023-04-15T00:21:56;9.10;99.90
22185;DHT22;11258;52.516;13.318;2023-04-15T00:24:22;9.00;99.90
22185;DHT22;11258;52.516;13.318;2023-04-15T00:26:48;9.10;99.90
22185;DHT22;11258;52.516;13.318;2023-04-15T00:29:14;9.10;99.90
22185;DHT22;11258;52.516;13.318;2023-04-15T00:31:40;9.20;99.90
22185;DHT22;11258;52.516;13.318;2023-04-15T00:34:06;9.10;99.90
22185;DHT22;11258;52.516;13.318;2023-04-15T00:36:32;9.10;99.90
22185;DHT22;11258;52.516;13.318;2023-04-15T00:38:59;9.10;99.90
22185;DHT22;11258;52.516;13.318;2023-04-15T00:41:25;9.00;99.90
22185;DHT22;11258;52.516;13.318;2023-04-15T00:43:51;9.00;99.90
22185;DHT22;11258;52.516;13.318;2023-04-15T00:46:18;9.10;99.90
22185;DHT22;11258;52.516;13.318;2023-04-15T00:48:46;9.10;99.90
22185;DHT22;11258;52.516;13.318;2023-04-15T00:51:12;9.10;99.90
22185;DHT22;11258;52.516;13.318;2023-04-15T00:53:38;9.10;99.90
22185;DHT22;11258;52.516;13.318;2023-04-15T00:56:04;9.10;99.90
22185;DHT22;11258;52.516;13.318;2023-04-15T00:58:30;9.10;99.90
22185;DHT22;11258;52.516;13.318;2023-04-15T01:00:56;9.10;99.90
22185;DHT22;11258;52.516;13.318;2023-04-15T01:03:22;9.10;99.90
22185;DHT22;11258;52.516;13.318;2023-04-15T01:05:49;9.10;99.90
22185;DHT22;11258;52.516;13.318;2023-04-15T01:08:14;9.10;99.90
22185;DHT22;11258;52.516;13.318;2023-04-15T01:10:40;9.00;99.90
22185;DHT22;11258;52.516;13.318;2023-04-15T01:13:06;9.10;99.90
22185;DHT22;11258;52.516;13.318;2023-04-15T01:15:32;9.10;99.90
22185;DHT22;11258;52.516;13.318;2023-04-15T01:18:01;9.10;99.90
22185;DHT22;11258;52.516;13.318;2023-04-15T01:20:28;9.10;99.90
22185;DHT22;11258;52.516;13.318;2023-04-15T01:22:54;9.10;99.90
22185;DHT22;11258;52.516;13.318;2023-04-15T01:25:30;9.10;99.90
22185;DHT22;11258;52.516;13.318;2023-04-15T01:27:56;9.10;99.90
22185;DHT22;11258;52.516;13.318;2023-04-15T01:30:22;9.10;99.90
22185;DHT22;11258;52.516;13.318;2023-04-15T01:32:47;9.10;99.90
22185;DHT22;11258;52.516;13.318;2023-04-15T01:35:13;9.10;99.90
22185;DHT22;11258;52.516;13.318;2023-04-15T01:37:39;9.10;99.90
22185;DHT22;11258;52.516;13.318;2023-04-15T01:40:06;9.10;99.90
22185;DHT22;11258;52.516;13.318;2023-04-15T01:42:32;9.10;99.90
22185;DHT22;11258;52.516;13.318;2023-04-15T01:44:58;9.10;99.90
22185;DHT22;11258;52.516;13.318;2023-04-15T01:47:23;9.10;99.90
22185;DHT22;11258;52.516;13.318;2023-04-15T01:49:49;9.10;99.90
22185;DHT22;11258;52.516;13.318;2023-04-15T01:52:15;9.10;99.90
22185;DHT22;11258;52.516;13.318;2023-04-15T01:54:40;9.10;99.90
22185;DHT22;11258;52.516;13.318;2023-04-15T01:57:06;9.10;99.90
22185;DHT22;11258;52.516;13.318;2023-04-15T01:59:32;9.10;99.90
22185;DHT22;11258;52.516;13.318;2023-04-15T02:01:58;9.10;99.90
22185;DHT22;11258;52.516;13.318;2023-04-15T02:04:24;9.10;99.90
22185;DHT22;11258;52.516;13.318;2023-04-15T02:06:49;9.10;99.90
22185;DHT22;11258;52.516;13.318;2023-04-15T02:09:15;9.10;99.90
22185;DHT22;11258;52.516;13.318;2023-04-15T02:11:41;9.10;99.90
22185;DHT22;11258;52.516;13.318;2023-04-15T02:14:09;9.10;99.90
22185;DHT22;11258;52.516;13.318;2023-04-15T02:16:35;9.10;99.90
22185;DHT22;11258;52.516;13.318;2023-04-15T02:19:01;9.10;99.90
22185;DHT22;11258;52.516;13.318;2023-04-15T02:21:26;9.00;99.90
22185;DHT22;11258;52.516;13.318;2023-04-15T02:23:52;9.10;99.90
22185;DHT22;11258;52.516;13.318;2023-04-15T02:26:20;9.10;99.90
22185;DHT22;11258;52.516;13.318;2023-04-15T02:28:47;9.10;99.90
22185;DHT22;11258;52.516;13.318;2023-04-15T02:31:13;9.10;99.90
22185;DHT22;11258;52.516;13.318;2023-04-15T02:33:39;9.10;99.90
22185;DHT22;11258;52.516;13.318;2023-04-15T02:36:05;9.10;99.90
22185;DHT22;11258;52.516;13.318;2023-04-15T02:38:32;9.20;99.90
22185;DHT22;11258;52.516;13.318;2023-04-15T02:40:57;9.10;99.90
22185;DHT22;11258;52.516;13.318;2023-04-15T02:43:23;9.10;99.90
22185;DHT22;11258;52.516;13.318;2023-04-15T02:45:49;9.10;99.90
22185;DHT22;11258;52.516;13.318;2023-04-15T02:48:15;9.20;99.90
22185;DHT22;11258;52.516;13.318;2023-04-15T02:50:43;9.10;99.90
22185;DHT22;11258;52.516;13.318;2023-04-15T02:53:09;9.10;99.90
22185;DHT22;11258;52.516;13.318;2023-04-15T02:55:34;9.20;99.90
22185;DHT22;11258;52.516;13.318;2023-04-15T02:58:00;9.20;99.90
22185;DHT22;11258;52.516;13.318;2023-04-15T03:00:26;9.20;99.90
22185;DHT22;11258;52.516;13.318;2023-04-15T03:02:57;9.20;99.90
22185;DHT22;11258;52.516;13.318;2023-04-15T03:05:24;9.20;99.90
22185;DHT22;11258;52.516;13.318;2023-04-15T03:07:50;9.20;99.90
22185;DHT22;11258;52.516;13.318;2023-04-15T03:10:16;9.20;99.90
22185;DHT22;11258;52.516;13.318;2023-04-15T03:12:42;9.30;99.90
22185;DHT22;11258;52.516;13.318;2023-04-15T03:15:08;9.20;99.90
22185;DHT22;11258;52.516;13.318;2023-04-15T03:17:34;9.20;99.90
22185;DHT22;11258;52.516;13.318;2023-04-15T03:20:04;9.30;99.90
22185;DHT22;11258;52.516;13.318;2023-04-15T03:22:31;9.20;99.90
22185;DHT22;11258;52.516;13.318;2023-04-15T03:24:57;9.20;99.90
22185;DHT22;11258;52.516;13.318;2023-04-15T03:27:23;9.30;99.90
22185;DHT22;11258;52.516;13.318;2023-04-15T03:29:48;9.30;99.90
22185;DHT22;11258;52.516;13.318;2023-04-15T03:32:14;9.30;99.90
22185;DHT22;11258;52.516;13.318;2023-04-15T03:34:40;9.30;99.90
22185;DHT22;11258;52.516;13.318;2023-04-15T03:37:06;9.30;99.90
22185;DHT22;11258;52.516;13.318;2023-04-15T03:39:33;9.20;99.90
22185;DHT22;11258;52.516;13.318;2023-04-15T03:41:58;9.20;99.90
22185;DHT22;11258;52.516;13.318;2023-04-15T03:44:26;9.30;99.90
22185;DHT22;11258;52.516;13.318;2023-04-15T03:46:52;9.30;99.90
22185;DHT22;11258;52.516;13.318;2023-04-15T03:49:17;9.30;99.90
22185;DHT22;11258;52.516;13.318;2023-04-15T03:51:43;9.30;99.90
22185;DHT22;11258;52.516;13.318;2023-04-15T03:54:09;9.30;99.90
22185;DHT22;11258;52.516;13.318;2023-04-15T03:56:36;9.30;99.90
22185;DHT22;11258;52.516;13.318;2023-04-15T03:59:02;9.30;99.90
22185;DHT22;11258;52.516;13.318;2023-04-15T04:01:27;9.30;99.90
22185;DHT22;11258;52.516;13.318;2023-04-15T04:03:53;9.40;99.90
22185;DHT22;11258;52.516;13.318;2023-04-15T04:06:19;9.40;99.90
22185;DHT22;11258;52.516;13.318;2023-04-15T04:08:44;9.40;99.90
22185;DHT22;11258;52.516;13.318;2023-04-15T04:11:10;9.40;99.90
22185;DHT22;11258;52.516;13.318;2023-04-15T04:13:36;9.40;99.90
22185;DHT22;11258;52.516;13.318;2023-04-15T04:16:02;9.30;99.90
22185;DHT22;11258;52.516;13.318;2023-04-15T04:18:30;9.30;99.90
22185;DHT22;11258;52.516;13.318;2023-04-15T04:20:55;9.30;99.90
22185;DHT22;11258;52.516;13.318;2023-04-15T04:23:21;9.40;99.90
22185;DHT22;11258;52.516;13.318;2023-04-15T04:25:47;9.40;99.90
22185;DHT22;11258;52.516;13.318;2023-04-15T04:28:12;9.40;99.90
22185;DHT22;11258;52.516;13.318;2023-04-15T04:30:38;9.40;99.90
22185;DHT22;11258;52.516;13.318;2023-04-15T04:33:04;9.40;99.90
22185;DHT22;11258;52.516;13.318;2023-04-15T04:35:29;9.40;99.90
22185;DHT22;11258;52.516;13.318;2023-04-15T04:37:58;9.40;99.90
22185;DHT22;11258;52.516;13.318;2023-04-15T04:40:23;9.40;99.90
22185;DHT22;11258;52.516;13.318;2023-04-15T04:42:49;9.40;99.90
22185;DHT22;11258;52.516;13.318;2023-04-15T04:45:14;9.40;99.90
22185;DHT22;11258;52.516;13.318;2023-04-15T04:47:40;9.40;99.90
22185;DHT22;11258;52.516;13.318;2023-04-15T04:50:06;9.40;99.90
22185;DHT22;11258;52.516;13.318;2023-04-15T04:52:32;9.40;99.90
22185;DHT22;11258;52.516;13.318;2023-04-15T04:54:58;9.40;99.90
22185;DHT22;11258;52.516;13.318;2023-04-15T04:57:23;9.50;99.90
22185;DHT22;11258;52.516;13.318;2023-04-15T04:59:49;9.50;99.90
22185;DHT22;11258;52.516;13.318;2023-04-15T05:02:14;9.50;99.90
22185;DHT22;11258;52.516;13.318;2023-04-15T05:04:40;9.50;99.90
22185;DHT22;11258;52.516;13.318;2023-04-15T05:07:06;9.60;99.90
22185;DHT22;11258;52.516;13.318;2023-04-15T05:09:32;9.60;99.90
22185;DHT22;11258;52.516;13.318;2023-04-15T05:12:00;9.60;99.90
22185;DHT22;11258;52.516;13.318;2023-04-15T05:14:26;9.60;99.90
22185;DHT22;11258;52.516;13.318;2023-04-15T05:16:51;9.60;99.90
22185;DHT22;11258;52.516;13.318;2023-04-15T05:19:17;9.60;99.90
22185;DHT22;11258;52.516;13.318;2023-04-15T05:21:42;9.60;99.90
22185;DHT22;11258;52.516;13.318;2023-04-15T05:24:08;9.60;99.90
22185;DHT22;11258;52.516;13.318;2023-04-15T05:26:34;9.70;99.90
22185;DHT22;11258;52.516;13.318;2023-04-15T05:28:59;9.60;99.90
22185;DHT22;11258;52.516;13.318;2023-04-15T05:31:25;9.60;99.90
22185;DHT22;11258;52.516;13.318;2023-04-15T05:33:51;9.70;99.90
22185;DHT22;11258;52.516;13.318;2023-04-15T05:36:16;9.70;99.90
22185;DHT22;11258;52.516;13.318;2023-04-15T05:38:42;9.70;99.90
22185;DHT22;11258;52.516;13.318;2023-04-15T05:41:08;9.70;99.90
22185;DHT22;11258;52.516;13.318;2023-04-15T05:43:33;9.70;99.90
22185;DHT22;11258;52.516;13.318;2023-04-15T05:45:59;9.70;99.90
22185;DHT22;11258;52.516;13.318;2023-04-15T05:48:24;9.70;99.90
22185;DHT22;11258;52.516;13.318;2023-04-15T05:50:50;9.80;99.90
22185;DHT22;11258;52.516;13.318;2023-04-15T05:53:16;9.80;99.90
22185;DHT22;11258;52.516;13.318;2023-04-15T05:55:42;9.80;99.90
22185;DHT22;11258;52.516;13.318;2023-04-15T05:58:07;9.90;99.90
22185;DHT22;11258;52.516;13.318;2023-04-15T06:00:33;9.90;99.90
22185;DHT22;11258;52.516;13.318;2023-04-15T06:02:59;9.90;99.90
22185;DHT22;11258;52.516;13.318;2023-04-15T06:05:25;10.00;99.90
22185;DHT22;11258;52.516;13.318;2023-04-15T06:07:50;10.10;99.90
22185;DHT22;11258;52.516;13.318;2023-04-15T06:10:17;10.20;99.90
22185;DHT22;11258;52.516;13.318;2023-04-15T06:12:43;10.20;99.90
22185;DHT22;11258;52.516;13.318;2023-04-15T06:15:09;10.20;99.90
22185;DHT22;11258;52.516;13.318;2023-04-15T06:17:35;10.30;99.90
22185;DHT22;11258;52.516;13.318;2023-04-15T06:20:01;10.30;99.90
22185;DHT22;11258;52.516;13.318;2023-04-15T06:22:27;10.30;99.90
22185;DHT22;11258;52.516;13.318;2023-04-15T06:24:53;10.30;99.90
22185;DHT22;11258;52.516;13.318;2023-04-15T06:27:19;10.30;99.90
22185;DHT22;11258;52.516;13.318;2023-04-15T06:29:45;10.30;99.90
22185;DHT22;11258;52.516;13.318;2023-04-15T06:32:11;10.40;99.90
22185;DHT22;11258;52.516;13.318;2023-04-15T06:34:37;10.40;99.90
22185;DHT22;11258;52.516;13.318;2023-04-15T06:37:03;10.40;99.90
22185;DHT22;11258;52.516;13.318;2023-04-15T06:39:28;10.40;99.90
22185;DHT22;11258;52.516;13.318;2023-04-15T06:41:54;10.50;99.90
22185;DHT22;11258;52.516;13.318;2023-04-15T06:44:21;10.60;99.90
22185;DHT22;11258;52.516;13.318;2023-04-15T06:46:46;10.60;99.90
22185;DHT22;11258;52.516;13.318;2023-04-15T06:49:12;10.70;99.90
22185;DHT22;11258;52.516;13.318;2023-04-15T06:51:37;10.70;99.90
22185;DHT22;11258;52.516;13.318;2023-04-15T06:54:03;10.80;99.90
22185;DHT22;11258;52.516;13.318;2023-04-15T06:56:34;10.90;99.90
22185;DHT22;11258;52.516;13.318;2023-04-15T06:58:59;11.00;99.90
22185;DHT22;11258;52.516;13.318;2023-04-15T07:01:25;11.00;99.90
22185;DHT22;11258;52.516;13.318;2023-04-15T07:03:51;11.20;99.90
22185;DHT22;11258;52.516;13.318;2023-04-15T07:06:17;11.30;99.90
22185;DHT22;11258;52.516;13.318;2023-04-15T07:08:43;11.40;99.90
22185;DHT22;11258;52.516;13.318;2023-04-15T07:11:09;11.70;99.90
22185;DHT22;11258;52.516;13.318;2023-04-15T07:13:34;11.60;99.90
22185;DHT22;11258;52.516;13.318;2023-04-15T07:16:01;11.60;99.90
22185;DHT22;11258;52.516;13.318;2023-04-15T07:18:26;11.60;99.90
22185;DHT22;11258;52.516;13.318;2023-04-15T07:20:52;11.50;99.90
22185;DHT22;11258;52.516;13.318;2023-04-15T07:23:18;11.50;99.90
22185;DHT22;11258;52.516;13.318;2023-04-15T07:25:43;11.30;99.90
22185;DHT22;11258;52.516;13.318;2023-04-15T07:28:09;11.30;99.90
22185;DHT22;11258;52.516;13.318;2023-04-15T07:30:35;11.20;99.90
22185;DHT22;11258;52.516;13.318;2023-04-15T07:33:00;11.10;99.90
22185;DHT22;11258;52.516;13.318;2023-04-15T07:35:27;10.90;99.90
22185;DHT22;11258;52.516;13.318;2023-04-15T07:37:53;10.80;99.90
22185;DHT22;11258;52.516;13.318;2023-04-15T07:40:19;10.70;99.90
22185;DHT22;11258;52.516;13.318;2023-04-15T07:42:45;10.70;99.90
22185;DHT22;11258;52.516;13.318;2023-04-15T07:45:12;10.60;99.90
22185;DHT22;11258;52.516;13.318;2023-04-15T07:47:38;10.60;99.90
22185;DHT22;11258;52.516;13.318;2023-04-15T07:50:05;10.60;99.90
22185;DHT22;11258;52.516;13.318;2023-04-15T07:52:31;10.60;99.90
22185;DHT22;11258;52.516;13.318;2023-04-15T07:55:06;10.70;99.90
22185;DHT22;11258;52.516;13.318;2023-04-15T07:57:36;10.60;99.90
22185;DHT22;11258;52.516;13.318;2023-04-15T08:00:03;10.50;99.90
22185;DHT22;11258;52.516;13.318;2023-04-15T08:02:32;10.50;99.90
22185;DHT22;11258;52.516;13.318;2023-04-15T08:04:57;10.50;99.90
22185;DHT22;11258;52.516;13.318;2023-04-15T08:07:24;10.50;99.90
22185;DHT22;11258;52.516;13.318;2023-04-15T08:09:50;10.50;99.90
22185;DHT22;11258;52.516;13.318;2023-04-15T08:12:15;10.60;99.90
22185;DHT22;11258;52.516;13.318;2023-04-15T08:14:41;10.50;99.90
22185;DHT22;11258;52.516;13.318;2023-04-15T08:17:07;10.50;99.90
22185;DHT22;11258;52.516;13.318;2023-04-15T08:19:32;10.60;99.90
22185;DHT22;11258;52.516;13.318;2023-04-15T08:21:58;10.50;99.90
22185;DHT22;11258;52.516;13.318;2023-04-15T08:24:24;10.50;99.90
22185;DHT22;11258;52.516;13.318;2023-04-15T08:26:51;10.50;99.90
22185;DHT22;11258;52.516;13.318;2023-04-15T08:29:17;10.50;99.90
22185;DHT22;11258;52.516;13.318;2023-04-15T08:31:43;10.50;99.90
22185;DHT22;11258;52.516;13.318;2023-04-15T08:34:10;10.50;99.90
22185;DHT22;11258;52.516;13.318;2023-04-15T08:36:36;10.50;99.90
22185;DHT22;11258;52.516;13.318;2023-04-15T08:39:02;10.60;99.90
22185;DHT22;11258;52.516;13.318;2023-04-15T08:41:37;10.60;99.90
22185;DHT22;11258;52.516;13.318;2023-04-15T08:44:05;10.60;99.90
22185;DHT22;11258;52.516;13.318;2023-04-15T08:46:31;10.70;99.90
22185;DHT22;11258;52.516;13.318;2023-04-15T08:48:59;10.70;99.90
22185;DHT22;11258;52.516;13.318;2023-04-15T08:51:28;10.70;99.90
22185;DHT22;11258;52.516;13.318;2023-04-15T08:53:54;10.70;99.90
22185;DHT22;11258;52.516;13.318;2023-04-15T08:56:23;10.80;99.90
22185;DHT22;11258;52.516;13.318;2023-04-15T08:58:49;10.60;99.90
22185;DHT22;11258;52.516;13.318;2023-04-15T09:01:15;10.70;99.90
22185;DHT22;11258;52.516;13.318;2023-04-15T09:03:41;10.70;99.90
22185;DHT22;11258;52.516;13.318;2023-04-15T09:06:07;10.60;99.90
22185;DHT22;11258;52.516;13.318;2023-04-15T09:08:33;10.60;99.90
22185;DHT22;11258;52.516;13.318;2023-04-15T09:11:01;10.60;99.90
22185;DHT22;11258;52.516;13.318;2023-04-15T09:13:27;10.70;99.90
22185;DHT22;11258;52.516;13.318;2023-04-15T09:15:53;10.70;99.90
22185;DHT22;11258;52.516;13.318;2023-04-15T09:18:27;10.70;99.90
22185;DHT22;11258;52.516;13.318;2023-04-15T09:20:53;10.60;99.90
22185;DHT22;11258;52.516;13.318;2023-04-15T09:23:20;10.80;99.90
22185;DHT22;11258;52.516;13.318;2023-04-15T09:25:45;10.70;99.90
22185;DHT22;11258;52.516;13.318;2023-04-15T09:28:11;10.80;99.90
22185;DHT22;11258;52.516;13.318;2023-04-15T09:30:37;10.80;99.90
22185;DHT22;11258;52.516;13.318;2023-04-15T09:33:03;10.80;99.90
22185;DHT22;11258;52.516;13.318;2023-04-15T09:35:33;10.70;99.90
22185;DHT22;11258;52.516;13.318;2023-04-15T09:38:07;10.80;99.90
22185;DHT22;11258;52.516;13.318;2023-04-15T09:40:39;10.80;99.90
22185;DHT22;11258;52.516;13.318;2023-04-15T09:43:06;10.70;99.90
22185;DHT22;11258;52.516;13.318;2023-04-15T09:45:33;10.80;99.90
22185;DHT22;11258;52.516;13.318;2023-04-15T09:48:18;10.80;99.90
22185;DHT22;11258;52.516;13.318;2023-04-15T09:50:48;10.80;99.90
22185;DHT22;11258;52.516;13.318;2023-04-15T09:53:19;10.80;99.90
22185;DHT22;11258;52.516;13.318;2023-04-15T09:55:48;10.80;99.90
22185;DHT22;11258;52.516;13.318;2023-04-15T09:58:27;10.80;99.90
22185;DHT22;11258;52.516;13.318;2023-04-15T10:00:54;10.80;99.90
22185;DHT22;11258;52.516;13.318;2023-04-15T10:03:24;10.80;99.90
22185;DHT22;11258;52.516;13.318;2023-04-15T10:05:55;10.80;99.90
22185;DHT22;11258;52.516;13.318;2023-04-15T10:08:23;10.80;99.90
22185;DHT22;11258;52.516;13.318;2023-04-15T10:10:52;10.80;99.90
22185;DHT22;11258;52.516;13.318;2023-04-15T10:13:20;10.80;99.90
22185;DHT22;11258;52.516;13.318;2023-04-15T10:16:02;10.90;99.90
22185;DHT22;11258;52.516;13.318;2023-04-15T10:18:33;10.80;99.90
22185;DHT22;11258;52.516;13.318;2023-04-15T10:21:00;10.90;99.90
22185;DHT22;11258;52.516;13.318;2023-04-15T10:23:27;10.80;99.90
22185;DHT22;11258;52.516;13.318;2023-04-15T10:25:53;10.80;99.90
22185;DHT22;11258;52.516;13.318;2023-04-15T10:28:19;10.80;99.90
22185;DHT22;11258;52.516;13.318;2023-04-15T10:30:47;10.80;99.90
22185;DHT22;11258;52.516;13.318;2023-04-15T10:33:16;10.80;99.90
22185;DHT22;11258;52.516;13.318;2023-04-15T10:35:43;10.80;99.90
22185;DHT22;11258;52.516;13.318;2023-04-15T10:38:31;10.80;99.90
22185;DHT22;11258;52.516;13.318;2023-04-15T10:41:27;10.80;99.90
22185;DHT22;11258;52.516;13.318;2023-04-15T10:43:59;10.90;99.90
22185;DHT22;11258;52.516;13.318;2023-04-15T10:46:42;10.90;99.90
22185;DHT22;11258;52.516;13.318;2023-04-15T10:49:08;11.00;99.90
22185;DHT22;11258;52.516;13.318;2023-04-15T10:51:40;11.00;99.90
22185;DHT22;11258;52.516;13.318;2023-04-15T10:54:14;11.00;99.90
22185;DHT22;11258;52.516;13.318;2023-04-15T10:56:50;11.00;99.90
22185;DHT22;11258;52.516;13.318;2023-04-15T10:59:16;11.00;99.90
22185;DHT22;11258;52.516;13.318;2023-04-15T11:02:01;11.00;99.90
22185;DHT22;11258;52.516;13.318;2023-04-15T11:04:53;11.00;99.90
22185;DHT22;11258;52.516;13.318;2023-04-15T11:07:56;11.00;99.90
22185;DHT22;11258;52.516;13.318;2023-04-15T11:12:57;11.10;99.90
22185;DHT22;11258;52.516;13.318;2023-04-15T11:18:22;11.00;99.90
22185;DHT22;11258;52.516;13.318;2023-04-15T11:20:50;11.00;99.90
22185;DHT22;11258;52.516;13.318;2023-04-15T11:23:38;11.00;99.90
22185;DHT22;11258;52.516;13.318;2023-04-15T11:26:06;11.00;99.90
22185;DHT22;11258;52.516;13.318;2023-04-15T11:28:34;11.10;99.90
22185;DHT22;11258;52.516;13.318;2023-04-15T11:31:15;11.00;99.90
22185;DHT22;11258;52.516;13.318;2023-04-15T11:33:46;11.00;99.90
22185;DHT22;11258;52.516;13.318;2023-04-15T11:36:12;11.10;99.90
22185;DHT22;11258;52.516;13.318;2023-04-15T11:38:42;11.10;99.90
22185;DHT22;11258;52.516;13.318;2023-04-15T11:41:08;11.10;99.90
22185;DHT22;11258;52.516;13.318;2023-04-15T11:43:34;11.00;99.90
22185;DHT22;11258;52.516;13.318;2023-04-15T11:46:01;11.00;99.90
22185;DHT22;11258;52.516;13.318;2023-04-15T11:48:28;11.00;99.90
22185;DHT22;11258;52.516;13.318;2023-04-15T11:50:57;11.00;99.90
22185;DHT22;11258;52.516;13.318;2023-04-15T11:53:23;11.00;99.90
22185;DHT22;11258;52.516;13.318;2023-04-15T11:55:51;11.10;99.90
22185;DHT22;11258;52.516;13.318;2023-04-15T11:58:24;11.10;99.90
22185;DHT22;11258;52.516;13.318;2023-04-15T12:06:03;11.00;99.90
22185;DHT22;11258;52.516;13.318;2023-04-15T12:11:41;11.10;99.90
22185;DHT22;11258;52.516;13.318;2023-04-15T12:16:39;11.10;99.90
22185;DHT22;11258;52.516;13.318;2023-04-15T12:19:11;11.10;99.90
22185;DHT22;11258;52.516;13.318;2023-04-15T12:21:39;11.20;99.90
22185;DHT22;11258;52.516;13.318;2023-04-15T12:24:07;11.20;99.90
22185;DHT22;11258;52.516;13.318;2023-04-15T12:29:04;11.20;99.90
22185;DHT22;11258;52.516;13.318;2023-04-15T12:31:30;11.30;99.90
22185;DHT22;11258;52.516;13.318;2023-04-15T12:33:56;11.30;99.90
22185;DHT22;11258;52.516;13.318;2023-04-15T12:36:22;11.30;99.90
22185;DHT22;11258;52.516;13.318;2023-04-15T12:38:48;11.40;99.90
22185;DHT22;11258;52.516;13.318;2023-04-15T12:41:14;11.50;99.90
22185;DHT22;11258;52.516;13.318;2023-04-15T12:43:40;11.50;99.90
22185;DHT22;11258;52.516;13.318;2023-04-15T12:46:06;11.60;99.90
22185;DHT22;11258;52.516;13.318;2023-04-15T12:48:33;11.60;99.90
22185;DHT22;11258;52.516;13.318;2023-04-15T12:50:59;11.50;99.90
22185;DHT22;11258;52.516;13.318;2023-04-15T12:53:25;11.50;99.90
22185;DHT22;11258;52.516;13.318;2023-04-15T12:55:51;11.50;99.90
22185;DHT22;11258;52.516;13.318;2023-04-15T12:58:16;11.50;99.90
22185;DHT22;11258;52.516;13.318;2023-04-15T13:00:42;11.50;99.90
22185;DHT22;11258;52.516;13.318;2023-04-15T13:03:09;11.50;99.90
22185;DHT22;11258;52.516;13.318;2023-04-15T13:05:34;11.50;99.90
22185;DHT22;11258;52.516;13.318;2023-04-15T13:08:01;11.50;99.90
22185;DHT22;11258;52.516;13.318;2023-04-15T13:10:28;11.40;99.90
22185;DHT22;11258;52.516;13.318;2023-04-15T13:12:54;11.40;99.90
22185;DHT22;11258;52.516;13.318;2023-04-15T13:15:21;11.40;99.90
22185;DHT22;11258;52.516;13.318;2023-04-15T13:17:47;11.40;99.90
22185;DHT22;11258;52.516;13.318;2023-04-15T13:20:13;11.40;99.90
22185;DHT22;11258;52.516;13.318;2023-04-15T13:22:38;11.40;99.90
22185;DHT22;11258;52.516;13.318;2023-04-15T13:25:05;11.50;99.90
22185;DHT22;11258;52.516;13.318;2023-04-15T13:27:31;11.50;99.90
22185;DHT22;11258;52.516;13.318;2023-04-15T13:29:58;11.50;99.90
22185;DHT22;11258;52.516;13.318;2023-04-15T13:32:24;11.50;99.90
22185;DHT22;11258;52.516;13.318;2023-04-15T13:34:50;11.50;99.90
22185;DHT22;11258;52.516;13.318;2023-04-15T13:37:15;11.40;99.90
22185;DHT22;11258;52.516;13.318;2023-04-15T13:39:41;11.50;99.90
22185;DHT22;11258;52.516;13.318;2023-04-15T13:42:07;11.50;99.90
22185;DHT22;11258;52.516;13.318;2023-04-15T13:44:32;11.50;99.90
22185;DHT22;11258;52.516;13.318;2023-04-15T13:46:58;11.50;99.90
22185;DHT22;11258;52.516;13.318;2023-04-15T13:49:23;11.50;99.90
22185;DHT22;11258;52.516;13.318;2023-04-15T13:51:50;11.50;99.90
22185;DHT22;11258;52.516;13.318;2023-04-15T13:54:16;11.40;99.90
22185;DHT22;11258;52.516;13.318;2023-04-15T13:56:41;11.50;99.90
22185;DHT22;11258;52.516;13.318;2023-04-15T13:59:07;11.50;99.90
22185;DHT22;11258;52.516;13.318;2023-04-15T14:01:34;11.50;99.90
22185;DHT22;11258;52.516;13.318;2023-04-15T14:03:59;11.50;99.90
22185;DHT22;11258;52.516;13.318;2023-04-15T14:06:25;11.40;99.90
22185;DHT22;11258;52.516;13.318;2023-04-15T14:08:51;11.40;99.90
22185;DHT22;11258;52.516;13.318;2023-04-15T14:11:17;11.40;99.90
22185;DHT22;11258;52.516;13.318;2023-04-15T14:13:43;11.40;99.90
22185;DHT22;11258;52.516;13.318;2023-04-15T14:16:08;11.40;99.90
22185;DHT22;11258;52.516;13.318;2023-04-15T14:18:34;11.40;99.90
22185;DHT22;11258;52.516;13.318;2023-04-15T14:21:01;11.40;99.90
22185;DHT22;11258;52.516;13.318;2023-04-15T14:23:27;11.40;99.90
22185;DHT22;11258;52.516;13.318;2023-04-15T14:25:53;11.40;99.90
22185;DHT22;11258;52.516;13.318;2023-04-15T14:28:18;11.40;99.90
22185;DHT22;11258;52.516;13.318;2023-04-15T14:30:44;11.50;99.90
22185;DHT22;11258;52.516;13.318;2023-04-15T14:33:10;11.50;99.90
22185;DHT22;11258;52.516;13.318;2023-04-15T14:35:35;11.50;99.90
22185;DHT22;11258;52.516;13.318;2023-04-15T14:38:01;11.40;99.90
22185;DHT22;11258;52.516;13.318;2023-04-15T14:40:26;11.40;99.90
22185;DHT22;11258;52.516;13.318;2023-04-15T14:42:52;11.40;99.90
22185;DHT22;11258;52.516;13.318;2023-04-15T14:45:18;11.40;99.90
22185;DHT22;11258;52.516;13.318;2023-04-15T14:47:43;11.40;99.90
22185;DHT22;11258;52.516;13.318;2023-04-15T14:50:09;11.30;99.90
22185;DHT22;11258;52.516;13.318;2023-04-15T14:52:35;11.30;99.90
22185;DHT22;11258;52.516;13.318;2023-04-15T14:55:07;11.30;99.90
22185;DHT22;11258;52.516;13.318;2023-04-15T14:57:35;11.30;99.90
22185;DHT22;11258;52.516;13.318;2023-04-15T15:00:02;11.20;99.90
22185;DHT22;11258;52.516;13.318;2023-04-15T15:02:28;11.30;99.90
22185;DHT22;11258;52.516;13.318;2023-04-15T15:04:54;11.30;99.90
22185;DHT22;11258;52.516;13.318;2023-04-15T15:07:21;11.20;99.90
22185;DHT22;11258;52.516;13.318;2023-04-15T15:09:46;11.20;99.90
22185;DHT22;11258;52.516;13.318;2023-04-15T15:12:12;11.20;99.90
22185;DHT22;11258;52.516;13.318;2023-04-15T15:14:38;11.20;99.90
22185;DHT22;11258;52.516;13.318;2023-04-15T15:17:03;11.30;99.90
22185;DHT22;11258;52.516;13.318;2023-04-15T15:19:29;11.30;99.90
22185;DHT22;11258;52.516;13.318;2023-04-15T15:21:55;11.20;99.90
22185;DHT22;11258;52.516;13.318;2023-04-15T15:24:20;11.30;99.90
22185;DHT22;11258;52.516;13.318;2023-04-15T15:26:46;11.20;99.90
22185;DHT22;11258;52.516;13.318;2023-04-15T15:29:12;11.30;99.90
22185;DHT22;11258;52.516;13.318;2023-04-15T15:31:37;11.20;99.90
22185;DHT22;11258;52.516;13.318;2023-04-15T15:34:03;11.30;99.90
22185;DHT22;11258;52.516;13.318;2023-04-15T15:36:29;11.30;99.90
22185;DHT22;11258;52.516;13.318;2023-04-15T15:38:58;11.30;99.90